International Virtual Aviation Organisation

Russian Federation and Kazakhstan MCD

 

Карточка аэропорта UHMA

Внимание!
Информация на этой странице в стадии наполнения.
Если вы не увидели какой-то информации, или заметили неточность - пожалуйста сообщите нам!
Спасибо!
Команда RU-STAFF
Название аэропортаУгольный
Название аэропорта (англ.)Ugolny
Превышение194 ft. (59.1 m.)
Координаты64°44.1', 177°44.28'
Высота перехода1600m
Эшелон переходаQFE>=755mm:FL070; QFE<755=>728:FL080; QFE<728:FL090
Коды ответчика6501-6537
Зона ОрВДМагадан РПИ (UHMM)
Данные METARUHMA 250430Z 33011MPS 0650 0550W R01/1500U +SN BLSN VV008 M03/M04 Q0955 R01/39//40 NOSIG RMK TDZ R01/33011G14MPS END R01/33011G14MPS QFE712/0950
Проноз погоды (TAF)UHMA 250141Z 2503/2603 33009G15MPS 1400 SN BLSN SCT003 BKN010 TEMPO 2503/2509 28013G20MPS 0300 +SHSN BLSN VV002 BECMG 2509/2511 23009G15MPS 3100 -SN BLSN TEMPO 2511/2521 18014G20MPS 0500 +SHSN BLSN VV002 FM252100 16005G11MPS 5000 BR SCT010 SCT020 TEMPO 2521/2603 1100 -SHSN BR SCT004 BKN015CB
NOTAMshow/hide NOTAM
AWOS   TABLE

Информация о ВПП


Диспетчерские позиции

Позывной Наименование органа УВД Частота
UHMA_APPАнадырь-Подход124.0
UHMA_TWRАнадырь-Старт124.0



Спутниковое изображение